Flight Track Log - Related Links

Times and Time Zones

All times are in EDT time to prevent confusion due to time zone crossing. See the VOZ464 flight status page for this flight to view local times or setup timezone preferences in your user account.

Time Position Orientation Groundspeed Altitude Reporting Facility
EDT Latitude Longitude Course Direction KTS MPH feet Rate Location/Type
06:57PM -27.4450 153.1210 153° Southeast 190 219 2,100  Level Aus ATC (RADAR)
06:57PM -27.4660 153.1330 153° Southeast 215 247 2,800 2,118 Climbing FlightAware
06:58PM -27.4890 153.1450 155° Southeast 221 254 3,900 1,320 Climbing FlightAware
06:58PM -27.5090 153.1550 156° South 221 254 3,900 2,444 Level FlightAware
06:59PM -27.5528 153.1361 156° South 262 302 6,100 3,771 Climbing Aus ATC (RADAR)
06:59PM -27.5560 153.1340 156° South 272 313 6,100 1,935 Level FlightAware
06:59PM -27.5880 153.1230 197° South 284 327 7,100 2,550 Climbing FlightAware
07:00PM -27.6050 153.1150 203° Southwest 288 331 7,800 3,067 Climbing FlightAware
07:00PM -27.6390 153.0860 217° Southwest 292 336 9,400 2,906 Climbing FlightAware
07:01PM -27.6726 153.0466 217° Southwest 290 334 10,900 2,167 Climbing Aus ATC (RADAR)
07:01PM -27.6720 153.0460 217° Southwest 310 357 10,700 1,029 Descending FlightAware
07:01PM -27.6959 152.9922 217° Southwest 327 376 11,500 1,200 Climbing Aus ATC (RADAR)
07:01PM -27.7030 152.9740 217° Southwest 359 413 11,600 2,204 Climbing FlightAware
07:02PM -27.7303 152.9048 217° Southwest 360 414 13,300 2,250 Climbing Aus ATC (RADAR)
07:02PM -27.7310 152.9040 217° Southwest 371 427 13,100 1,953 Descending FlightAware
07:03PM -27.7590 152.8340 246° West 378 435 14,700 2,842 Climbing FlightAware
07:03PM -27.7738 152.7975 246° West 373 429 15,800 2,133 Climbing Aus ATC (RADAR)
07:03PM -27.7930 152.7480 246° West 394 453 16,300 1,733 Climbing FlightAware
07:04PM -27.8069 152.7136 246° West 388 447 17,100 2,438 Climbing Aus ATC (RADAR)
07:04PM -27.8186 152.6850 245° Southwest 393 452 17,600 1,304 Climbing Aus ATC (RADAR)
07:04PM -27.8220 152.6750 245° Southwest 404 465 17,600 2,229 Level FlightAware
07:05PM -27.8454 152.6172 245° Southwest 399 459 18,900 2,800 Climbing Aus ATC (RADAR)
07:05PM -27.8570 152.5870 245° Southwest 394 453 19,700 3,360 Climbing FlightAware
07:05PM -27.8819 152.5245 245° Southwest 377 434 21,700 3,000 Climbing Aus ATC (RADAR)
07:06PM -27.8860 152.5140 245° Southwest 379 436 21,700 2,400 Level FlightAware
07:06PM -27.9068 152.4618 245° Southwest 369 425 23,100 2,550 Climbing Aus ATC (RADAR)
07:06PM -27.9140 152.4420 245° Southwest 370 426 23,400 1,759 Climbing FlightAware
07:07PM -27.9450 152.3630 246° West 367 422 24,800 1,902 Climbing FlightAware
07:08PM -27.9713 152.2948 246° West 362 417 26,000 1,500 Climbing Aus ATC (RADAR)
07:08PM -27.9700 152.2930 246° West 368 423 25,800  Descending FlightAware
07:08PM -27.9840 152.2160 258° West 372 428 26,000 333 Climbing FlightAware
07:09PM -27.9926 152.1513 258° West 368 423 26,200  Climbing Aus ATC (RADAR)
07:09PM -27.9950 152.1300 258° West 376 433 26,000  Descending FlightAware
07:10PM -28.0080 152.0446 258° West 372 428 26,200  Climbing Aus ATC (RADAR)
07:10PM -28.0100 152.0280 258° West 376 433 26,000  Descending FlightAware
07:11PM -28.0217 151.9479 258° West 371 427 26,200  Climbing Aus ATC (RADAR)
07:11PM -28.0220 151.9400 258° West 377 434 26,000  Descending FlightAware
07:11PM -28.0309 151.8801 258° West 370 426 26,200  Climbing Aus ATC (RADAR)
07:11PM -28.0330 151.8620 258° West 377 434 26,000 -226 Descending FlightAware
07:12PM -28.0440 151.7790 261° West 377 434 26,000 148 Level FlightAware
07:13PM -28.0565 151.6949 261° West 375 432 26,200  Climbing Aus ATC (RADAR)
07:13PM -28.0560 151.6920 261° West 381 438 26,000 -273 Descending FlightAware
07:13PM -28.0670 151.6110 261° West 381 438 26,000 158 Level FlightAware
07:14PM -28.0780 151.5375 261° West 378 435 26,200  Climbing Aus ATC (RADAR)
07:14PM -28.0780 151.5340 261° West 383 441 26,000 -245 Descending FlightAware
07:15PM -28.0900 151.4440 261° West 386 444 26,000  Level FlightAware
07:16PM -28.1010 151.3630 261° West 388 447 26,000 182 Level FlightAware
07:16PM -28.1090 151.3080 261° West 384 442 26,200  Climbing Aus ATC (RADAR)
07:16PM -28.1140 151.2650 261° West 389 448 26,000 -162 Descending FlightAware
07:17PM -28.1260 151.1710 262° West 392 451 26,000 182 Level FlightAware
07:18PM -28.1340 151.1154 262° West 389 448 26,200  Climbing Aus ATC (RADAR)
07:18PM -28.1390 151.0780 262° West 395 455 26,000 -203 Descending FlightAware
07:19PM -28.1480 151.0070 262° West 396 456 26,000 148 Level FlightAware
07:19PM -28.1616 150.9005 262° West 394 453 26,200  Climbing Aus ATC (RADAR)
07:19PM -28.1610 150.9050 262° West 396 456 26,000 -273 Descending FlightAware
07:20PM -28.1720 150.8300 261° West 397 457 26,000  Level FlightAware
07:21PM -28.1810 150.7600 262° West 397 457 26,000 182 Level FlightAware
07:21PM -28.1910 150.6748 262° West 394 453 26,200  Climbing Aus ATC (RADAR)
07:21PM -28.1910 150.6900 262° West 397 457 26,000  Descending FlightAware
07:22PM -28.1997 150.6020 262° West 397 457 26,200  Climbing Aus ATC (RADAR)
07:22PM -28.2030 150.6030 262° West 397 457 26,000  Descending FlightAware
07:23PM -28.2253 150.4809 262° West 398 458 26,200  Climbing Aus ATC (RADAR)
07:23PM -28.2130 150.5330 262° West 397 457 26,000  Descending FlightAware
07:24PM -28.2526 150.3701 262° West 397 457 26,200 141 Climbing Aus ATC (RADAR)
07:24PM -28.2722 150.2896 254° West 396 456 26,200  Level Aus ATC (RADAR)
07:25PM -28.2799 150.2592 254° West 400 460 26,200  Level Aus ATC (RADAR)
07:25PM -28.2991 150.1783 255° West 399 459 26,200  Level Aus ATC (RADAR)
07:26PM -28.3243 150.0775 254° West 397 457 26,200  Level Aus ATC (RADAR)
07:27PM -28.3451 149.9956 254° West 405 466 26,200  Level Aus ATC (RADAR)
07:28PM -28.3773 149.8613 255° West 407 468 26,200  Level Aus ATC (RADAR)
07:29PM -28.4175 149.6925 255° West 421 484 26,200  Level Aus ATC (RADAR)
07:30PM -28.4378 149.6079 255° West 417 480 26,200  Level Aus ATC (RADAR)
07:30PM -28.4482 149.5650 254° West 420 483 26,200  Level Aus ATC (RADAR)
07:31PM -28.4660 149.4905 255° West 418 481 26,200  Level Aus ATC (RADAR)
07:31PM -28.4891 149.3934 255° West 422 486 26,200  Level Aus ATC (RADAR)
07:32PM -28.5069 149.3187 255° West 421 484 26,200  Level Aus ATC (RADAR)
07:33PM -28.5402 149.1779 255° West 426 490 26,200  Level Aus ATC (RADAR)
07:34PM -28.5756 149.0274 255° West 424 488 26,200  Level Aus ATC (RADAR)
07:35PM -28.5858 148.9840 255° West 425 489 26,200  Level Aus ATC (RADAR)
07:35PM -28.6036 148.9086 255° West 424 488 26,200  Level Aus ATC (RADAR)
07:36PM -28.6364 148.7679 255° West 425 489 26,200  Level Aus ATC (RADAR)
07:37PM -28.6542 148.6920 255° West 425 489 26,200  Level Aus ATC (RADAR)
07:38PM -28.6843 148.5626 255° West 425 489 26,200 -105 Level Aus ATC (RADAR)
07:39PM -28.7110 148.4477 255° West 416 479 26,000  Descending Aus ATC (RADAR)
07:39PM -28.7287 148.3681 256° West 423 487 26,200 235 Climbing Aus ATC (RADAR)
07:40PM -28.7356 148.3362 256° West 421 484 26,200 -222 Level Aus ATC (RADAR)
07:40PM -28.7546 148.2543 255° West 413 475 26,000  Descending Aus ATC (RADAR)
07:41PM -28.7832 148.1295 255° West 424 488 26,200 132 Climbing Aus ATC (RADAR)
07:42PM -28.8008 148.0533 255° West 426 490 26,200 -136 Level Aus ATC (RADAR)
07:43PM -28.8224 147.9435 257° West 339 390 26,000  Descending Aus ATC (RADAR)
07:43PM -28.8437 147.8580 254° West 423 487 26,200 125 Climbing Aus ATC (RADAR)
07:44PM -28.8705 147.7295 257° West 419 482 26,200  Level Aus ATC (RADAR)
07:45PM -28.8773 147.6971 256° West 419 482 26,200 -222 Level Aus ATC (RADAR)
07:45PM -28.8984 147.6122 254° West 417 480 26,000  Descending Aus ATC (RADAR)
07:46PM -28.9258 147.4783 257° West 426 490 26,200 119 Climbing Aus ATC (RADAR)
07:47PM -28.9458 147.3904 255° West 428 493 26,200 100 Level Aus ATC (RADAR)
07:50PM -29.0268 147.0285 251° West 30,000 101 Climbing Aus ATC (Calculated)
07:51PM -29.0496 146.9258 251° West 30,000 39 Level Aus ATC (Calculated)
07:52PM -29.0793 146.7909 251° West 30,000 40 Level Aus ATC (Calculated)
07:53PM -29.1264 146.5724 251° West 32,000 40 Climbing Aus ATC (Calculated)
07:54PM -29.1469 146.4767 251° West 32,000 Level Aus ATC (Calculated)
07:54PM -29.1469 146.4767 251° West 32,000 Level Aus ATC (Calculated)
07:55PM -29.1840 146.3029 251° West 32,000 Level Aus ATC (Calculated)
07:56PM -29.2007 146.2240 251° West 32,000 Level Aus ATC (Calculated)
07:58PM -29.1567 146.4330 76° East  Level FlightAware Approximate
07:59PM -29.1306 146.5558 76° East  Level FlightAware Approximate
08:00PM -29.1044 146.6785 76° East  Level FlightAware Approximate
08:01PM -29.1306 146.5558 256° West  Level FlightAware Approximate
08:01PM -29.3554 145.4830 251° West 32,000  Level Aus ATC (Calculated)
08:03PM -29.4006 145.2631 256° West  Level Estimated
08:04PM -29.4256 145.1397 257° West  Level FlightAware Approximate
08:05PM -29.4505 145.0162 257° West  Level FlightAware Approximate
08:05PM -29.4757 144.8908 250° West 32,000  Level Aus ATC (Calculated)
08:05PM -29.4757 144.8908 250° West 32,000 Level Aus ATC (Calculated)
08:07PM -29.4272 145.1317 77° East  Level FlightAware Approximate
08:07PM -29.5486 144.5238 250° West 32,000  Level Aus ATC (Calculated)
08:09PM -29.5131 144.7032 77° East  Level FlightAware Approximate
08:09PM -29.6062 144.2299 250° West 32,000  Level Aus ATC (Calculated)
08:10PM -29.4884 144.8269 77° East  Level FlightAware Approximate
08:11PM -29.5809 144.3596 77° East  Level FlightAware Approximate
08:11PM -29.6348 144.0829 249° West 32,000  Level Aus ATC (Calculated)
08:11PM -29.6632 143.9357 249° West 32,000 Level Aus ATC (Calculated)
08:13PM -29.6345 144.0845 78° East  Level FlightAware Approximate
08:14PM -29.6104 144.2085 77° East  Level FlightAware Approximate
08:15PM -29.5862 144.3323 77° East  Level FlightAware Approximate
08:16PM -29.5619 144.4562 77° East  Level FlightAware Approximate
08:16PM -29.7890 143.2724 248° West 32,000  Level Aus ATC (Calculated)
08:17PM -29.5375 144.5799 77° East  Level FlightAware Approximate
08:18PM -29.8192 143.1113 257° West  Level Estimated
08:19PM -29.8421 142.9872 258° West  Level FlightAware Approximate
08:19PM -29.8574 142.9032 247° West 32,000  Level Aus ATC (Calculated)
08:20PM -29.8649 142.8631 258° West  Level FlightAware Approximate
08:20PM -29.8845 142.7554 247° West 32,000  Level Aus ATC (Calculated)
08:22PM -29.9202 142.5587 258° West  Level FlightAware Approximate
08:22PM -29.9619 142.5097 247° West 36,000  Level Aus ATC (Calculated)
08:24PM -29.8866 142.7119 67° East  Level FlightAware Approximate
08:24PM -30.0574 142.2516 247° West 36,000  Level Aus ATC (Calculated)
08:26PM -29.9890 142.4366 67° East  Level FlightAware Approximate
08:27PM -29.9457 142.5534 67° East  Level FlightAware Approximate
08:27PM -30.1839 141.9066 247° West 36,000  Level Aus ATC (Calculated)
08:29PM -30.1095 142.1097 67° East  Level FlightAware Approximate
08:29PM -30.3094 141.5608 247° West 36,000  Level Aus ATC (Calculated)
08:31PM -30.2541 141.7136 67° East  Level FlightAware Approximate
08:32PM -30.2114 141.8310 67° East  Level FlightAware Approximate
08:32PM -30.4341 141.2141 247° West 36,000  Level Aus ATC (Calculated)
08:33PM -30.1686 141.9482 67° East  Level FlightAware Approximate
08:34PM -30.3601 141.4203 67° East  Level FlightAware Approximate
08:35PM -30.3177 141.5379 67° East  Level FlightAware Approximate
08:36PM -30.2752 141.6554 67° East  Level FlightAware Approximate
08:37PM -30.2326 141.7729 67° East  Level FlightAware Approximate
08:37PM -30.6500 140.6053 248° West 36,000  Level Aus ATC (Calculated)
08:38PM -30.2537 141.6479 247° West  Level Estimated
08:39PM -30.7227 140.3980 248° West  Level FlightAware Approximate
08:40PM -30.7641 140.2793 248° West  Level FlightAware Approximate
08:41PM -30.8054 140.1606 248° West  Level FlightAware Approximate
08:42PM -30.8465 140.0418 248° West  Level FlightAware Approximate
08:42PM -30.8933 139.9063 248° West 36,000  Level Aus ATC (Calculated)
08:43PM -30.8876 139.9229 248° West  Level FlightAware Approximate
08:44PM -30.9655 139.6959 248° West  Level FlightAware Approximate
08:44PM -30.9836 139.6432 249° West 36,000  Level Aus ATC (Calculated)
08:46PM -31.0459 139.4603 248° West  Level FlightAware Approximate
08:46PM -31.0011 139.5903 248° West 421 484 32,200  Level Aus ATC (RADAR)
08:47PM -31.0154 139.5466 249° West 423 487 32,200  Level Aus ATC (RADAR)
08:47PM -31.0407 139.4746 248° West 419 482 32,200  Level Aus ATC (RADAR)
08:48PM -31.0878 139.3368 248° West 422 486 32,200  Level Aus ATC (RADAR)
08:49PM -31.1122 139.2626 249° West 420 483 32,200  Level Aus ATC (RADAR)
08:50PM -31.1479 139.1564 249° West 422 486 32,200  Level Aus ATC (RADAR)
08:51PM -31.2015 138.9958 249° West 424 488 32,200  Level Aus ATC (RADAR)
08:51PM -31.2157 138.9545 248° West 422 486 32,200  Level Aus ATC (RADAR)
08:52PM -31.2406 138.8807 248° West 420 483 32,200  Level Aus ATC (RADAR)
08:53PM -31.2830 138.7538 249° West 420 483 32,200  Level Aus ATC (RADAR)
08:53PM -31.3075 138.6780 249° West 424 488 32,200  Level Aus ATC (RADAR)
08:54PM -31.3497 138.5505 249° West 425 489 32,200  Level Aus ATC (RADAR)
08:55PM -31.3738 138.4811 248° West 414 476 32,200  Level Aus ATC (RADAR)
08:56PM -31.4193 138.3407 249° West 419 482 32,200  Level Aus ATC (RADAR)
08:56PM -31.4293 138.3094 250° West 420 483 32,200  Level Aus ATC (RADAR)
08:57PM -31.4542 138.2340 249° West 423 487 32,200  Level Aus ATC (RADAR)
08:58PM -31.4988 138.0983 249° West 417 480 32,200  Level Aus ATC (RADAR)
08:59PM -31.5228 138.0244 249° West 419 482 32,200  Level Aus ATC (RADAR)
08:59PM -31.5605 137.9085 249° West 418 481 32,200  Level Aus ATC (RADAR)
09:00PM -31.5878 137.8226 250° West 420 483 32,200  Level Aus ATC (RADAR)
09:02PM -31.6459 137.6441 249° West 417 480 32,200  Level Aus ATC (RADAR)
09:02PM -31.6602 137.5992 249° West 421 484 32,200  Level Aus ATC (RADAR)
09:02PM -31.6842 137.5242 249° West 424 488 32,200  Level Aus ATC (RADAR)
09:03PM -31.7179 137.4190 249° West 417 480 32,200  Level Aus ATC (RADAR)
09:04PM -31.7415 137.3445 250° West 420 483 32,200  Level Aus ATC (RADAR)
09:05PM -31.7783 137.2294 249° West 415 478 32,200  Level Aus ATC (RADAR)
09:05PM -31.8019 137.1548 250° West 416 479 32,200  Level Aus ATC (RADAR)
09:06PM -31.8334 137.0233 254° West 423 487 32,200  Level Aus ATC (RADAR)
09:07PM -31.8446 136.9102 263° West 425 489 32,200 474 Level Aus ATC (RADAR)
09:08PM -31.8590 136.7638 263° West 419 482 33,100 840 Climbing Aus ATC (RADAR)
09:09PM -31.8667 136.6837 264° West 424 488 33,600 1,011 Climbing Aus ATC (RADAR)
09:10PM -31.8799 136.5444 264° West 429 494 34,700 1,137 Climbing Aus ATC (RADAR)
09:10PM -31.8876 136.4637 264° West 428 493 35,400 900 Climbing Aus ATC (RADAR)
09:12PM -31.9031 136.3133 263° West 429 494 36,200 571 Climbing Aus ATC (RADAR)
09:12PM -31.9073 136.2685 264° West 426 490 36,200  Level Aus ATC (RADAR)
09:12PM -31.9155 136.1882 263° West 425 489 36,200  Level Aus ATC (RADAR)
09:13PM -31.9276 136.0536 264° West 419 482 36,200  Level Aus ATC (RADAR)
09:14PM -31.9351 135.9740 264° West 421 484 36,200  Level Aus ATC (RADAR)
09:15PM -31.9488 135.8285 264° West 415 478 36,200  Level Aus ATC (RADAR)
09:16PM -31.9571 135.7390 264° West 415 478 36,200  Level Aus ATC (RADAR)
09:17PM -31.9736 135.5403 264° West 411 473 36,200  Level Aus ATC (RADAR)
09:18PM -31.9783 135.4946 263° West 413 475 36,200  Level Aus ATC (RADAR)
09:18PM -31.9849 135.4165 264° West 415 478 36,200  Level Aus ATC (RADAR)
09:19PM -31.9962 135.2927 264° West 416 479 36,200  Level Aus ATC (RADAR)
09:20PM -32.0057 135.2037 263° West 412 474 36,200  Level Aus ATC (RADAR)
09:21PM -32.0134 135.0932 265° West 412 474 36,200  Level Aus ATC (RADAR)
09:21PM -32.0208 135.0137 264° West 415 478 36,200 -34 Level Aus ATC (RADAR)
09:27PM -32.0884 134.2098 265° West 36,000 -34 Descending Aus ATC (Calculated)
09:29PM -32.1030 134.0272 265° West  Level FlightAware Approximate
09:30PM -32.1132 133.8983 265° West  Level FlightAware Approximate
09:31PM -32.1233 133.7694 265° West  Level FlightAware Approximate
09:31PM -32.1134 133.7345 265° West 32,000  Level Aus ATC (Calculated)
09:31PM -32.1134 133.7345 265° West 32,000 Level Aus ATC (Calculated)
09:33PM -32.2956 133.6291 206° Southwest  Level FlightAware Approximate
09:34PM -32.3943 133.5725 206° Southwest  Level FlightAware Approximate
09:35PM -32.2958 133.6295 26° Northeast  Level FlightAware Approximate
09:36PM -32.3022 133.4999 267° West  Level Estimated
09:36PM -32.1444 133.0923 266° West 32,000  Level Aus ATC (Calculated)
09:38PM -32.1555 132.8422 267° West  Level FlightAware Approximate
09:39PM -32.1611 132.7128 267° West  Level FlightAware Approximate
09:40PM -32.1666 132.5835 267° West  Level FlightAware Approximate
09:41PM -32.1719 132.4541 267° West  Level FlightAware Approximate
09:41PM -32.1725 132.4406 266° West 32,000  Level Aus ATC (Calculated)
09:43PM -32.1824 132.1882 267° West  Level FlightAware Approximate
09:44PM -32.1874 132.0588 267° West  Level FlightAware Approximate
09:45PM -32.1922 131.9293 267° West  Level FlightAware Approximate
09:46PM -32.1968 131.7999 268° West  Level FlightAware Approximate
09:46PM -32.1972 131.7904 266° West 32,000  Level Aus ATC (Calculated)
09:48PM -32.2058 131.5379 268° West  Level FlightAware Approximate
09:49PM -32.2101 131.4084 268° West  Level FlightAware Approximate
09:50PM -32.2142 131.2789 268° West  Level FlightAware Approximate
09:51PM -32.2182 131.1493 268° West  Level FlightAware Approximate
09:51PM -32.2196 131.1026 267° West 32,000  Level Aus ATC (Calculated)
09:52PM -32.2221 131.0198 268° West  Level FlightAware Approximate
09:52PM -32.2247 130.9275 267° West 32,000  Level Aus ATC (Calculated)
09:53PM -32.2268 130.8521 268° West  Level FlightAware Approximate
09:54PM -32.2310 130.6986 268° West  Level FlightAware Approximate
09:55PM -32.2345 130.5690 268° West  Level FlightAware Approximate
09:56PM -32.2377 130.4395 268° West  Level FlightAware Approximate
09:56PM -32.2382 130.4186 267° West 32,000  Level Aus ATC (Calculated)
09:57PM -32.2409 130.3099 268° West  Level FlightAware Approximate
09:58PM -32.2442 130.1637 268° West  Level FlightAware Approximate
09:59PM -32.2471 130.0341 268° West  Level FlightAware Approximate
10:00PM -32.2498 129.9045 269° West  Level FlightAware Approximate
10:01PM -32.2524 129.7748 269° West  Level FlightAware Approximate
10:01PM -32.2533 129.7266 267° West 32,000  Level Aus ATC (Calculated)
10:03PM -32.2579 129.4725 269° West  Level FlightAware Approximate
10:04PM -32.2600 129.3432 269° West  Level FlightAware Approximate
10:05PM -32.2620 129.2140 269° West  Level FlightAware Approximate
10:06PM -32.2639 129.0848 269° West  Level FlightAware Approximate
10:06PM -32.2642 129.0657 267° West 32,000  Level Aus ATC (Calculated)
10:06PM -32.2642 129.0657 267° West 32,000 Level Aus ATC (Calculated)
10:08PM -32.2675 128.8093 269° West  Level FlightAware Approximate
10:09PM -32.2690 128.6801 269° West  Level FlightAware Approximate
10:10PM -32.2703 128.5509 269° West  Level FlightAware Approximate
10:11PM -32.2715 128.4216 269° West  Level FlightAware Approximate
10:11PM -32.2717 128.3963 268° West 32,000  Level Aus ATC (Calculated)
10:12PM -32.2726 128.2923 269° West  Level FlightAware Approximate
10:13PM -32.2737 128.1400 269° West  Level FlightAware Approximate
10:13PM -32.2743 128.0337 268° West 32,000  Level Aus ATC (Calculated)
10:14PM -32.2745 128.0107 270° West  Level FlightAware Approximate
10:15PM -32.2751 127.8894 270° West  Level FlightAware Approximate
10:16PM -32.2756 127.7601 270° West  Level FlightAware Approximate
10:16PM -32.2757 127.7164 268° West 32,000  Level Aus ATC (Calculated)
10:17PM -32.2761 127.5871 270° West  Level FlightAware Approximate
10:18PM -32.2763 127.4579 270° West  Level FlightAware Approximate
10:19PM -32.2764 127.3286 270° West  Level FlightAware Approximate
10:20PM -32.2763 127.1993 270° West  Level FlightAware Approximate
10:21PM -32.2762 127.0700 270° West  Level FlightAware Approximate
10:21PM -32.2761 127.0223 268° West 32,000  Level Aus ATC (Calculated)
10:22PM -32.2757 126.8935 270° West  Level FlightAware Approximate
10:23PM -32.2752 126.7646 270° West  Level FlightAware Approximate
10:24PM -32.2746 126.6358 270° West  Level FlightAware Approximate
10:25PM -32.2739 126.5070 270° West  Level FlightAware Approximate
10:25PM -32.2728 126.3543 268° West 32,000  Level Aus ATC (Calculated)
10:26PM -32.2730 126.3781 270° West  Level FlightAware Approximate
10:27PM -32.2718 126.2233 271° West  Level FlightAware Approximate
10:28PM -32.2706 126.0945 271° West  Level FlightAware Approximate
10:29PM -32.2693 125.9656 271° West  Level FlightAware Approximate
10:29PM -32.2677 125.8175 268° West 32,000  Level Aus ATC (Calculated)
10:30PM -32.2679 125.8368 271° West  Level FlightAware Approximate
10:30PM -32.2657 125.6565 268° West 32,000  Level Aus ATC (Calculated)
10:31PM -32.2654 125.6307 271° West  Level FlightAware Approximate
10:32PM -32.2640 125.5255 271° West  Level FlightAware Approximate
10:33PM -32.2633 125.4350 270° West  Level FlightAware Approximate
10:34PM -32.2626 125.3062 270° West  Level FlightAware Approximate
10:35PM -32.2618 125.1774 270° West  Level FlightAware Approximate
10:35PM -32.2608 125.0332 268° West 30,000  Level Aus ATC (Calculated)
10:36PM -32.2609 125.0486 270° West  Level FlightAware Approximate
10:37PM -32.2590 124.8271 271° West  Level FlightAware Approximate
10:37PM -32.2588 124.8021 268° West 30,000  Level Aus ATC (Calculated)
10:38PM -32.2577 124.6983 271° West  Level FlightAware Approximate
10:39PM -32.2569 124.6174 271° West  Level FlightAware Approximate
10:39PM -32.2563 124.5709 268° West 30,000  Level Aus ATC (Calculated)
10:41PM -32.2541 124.3848 271° West  Level FlightAware Approximate
10:41PM -32.2535 124.3398 268° West 30,000  Level Aus ATC (Calculated)
10:41PM -32.2535 124.3398 268° West 30,000 51 Level Aus ATC (Calculated)
10:43PM -32.2509 124.1552 271° West  Level FlightAware Approximate
10:43PM -32.2484 123.9932 268° West 30,000  Level Aus ATC (Calculated)
10:44PM -32.2490 124.0264 271° West  Level FlightAware Approximate
10:45PM -32.2463 123.8601 271° West  Level FlightAware Approximate
10:46PM -32.2440 123.7314 271° West  Level FlightAware Approximate
10:46PM -32.2446 123.7621 268° West 30,000  Level Aus ATC (Calculated)
10:46PM -32.2446 123.7621 268° West 30,000 58 Level Aus ATC (Calculated)
10:47PM -32.2425 123.6466 268° West 30,000 59 Level Aus ATC (Calculated)
10:48PM -32.2379 123.4156 268° West 30,000 60 Level Aus ATC (Calculated)
10:49PM -32.2378 123.4076 271° West  Level FlightAware Approximate
10:50PM -32.2351 123.2821 271° West  Level FlightAware Approximate
10:51PM -32.2323 123.1529 271° West  Level FlightAware Approximate
10:51PM -32.2304 123.0691 268° West 30,000  Level Aus ATC (Calculated)
10:52PM -32.2276 122.9536 268° West 30,000 68 Level Aus ATC (Calculated)
10:53PM -32.2250 122.8474 272° West  Level FlightAware Approximate
10:53PM -32.2248 122.8381 268° West 30,000  Level Aus ATC (Calculated)
10:54PM -32.2229 122.7620 272° West  Level FlightAware Approximate
10:55PM -32.2212 122.7003 272° West  Level FlightAware Approximate
10:56PM -32.2178 122.5712 272° West  Level FlightAware Approximate
10:57PM -32.2142 122.4421 272° West  Level FlightAware Approximate
10:58PM -32.2105 122.3130 272° West  Level FlightAware Approximate
10:58PM -32.2090 122.2608 267° West 30,000  Level Aus ATC (Calculated)
10:58PM -32.2055 122.1454 267° West 30,000 87 Level Aus ATC (Calculated)
11:00PM -32.2013 122.0086 272° West  Level FlightAware Approximate
11:01PM -32.1972 121.8803 272° West  Level FlightAware Approximate
11:02PM -32.1929 121.7521 272° West  Level FlightAware Approximate
11:03PM -32.1972 121.8803 92° East  Level FlightAware Approximate
11:03PM -32.2058 121.5998 266° West 30,000  Level Aus ATC (Calculated)
11:04PM -32.1945 121.7521 266° West  Level Estimated
11:05PM -32.2134 121.4611 266° West  Level FlightAware Approximate
11:06PM -32.2203 121.3331 266° West  Level FlightAware Approximate
11:06PM -32.2221 121.3009 266° West 30,000  Level Aus ATC (Calculated)
11:06PM -32.2221 121.3009 266° West 30,000 131 Level Aus ATC (Calculated)
11:08PM -32.2336 121.0818 266° West  Level FlightAware Approximate
11:09PM -32.2399 120.9578 266° West  Level FlightAware Approximate
11:10PM -32.2462 120.8338 267° West  Level FlightAware Approximate
11:10PM -32.2477 120.8023 266° West 30,000  Level Aus ATC (Calculated)
11:11PM -32.2523 120.7097 267° West  Level FlightAware Approximate
11:12PM -32.2572 120.6059 267° West  Level FlightAware Approximate
11:13PM -32.2631 120.4818 267° West  Level FlightAware Approximate
11:13PM -32.2621 120.5031 266° West 30,000  Level Aus ATC (Calculated)
11:14PM -32.2668 120.4033 266° West 30,000 234 Level Aus ATC (Calculated)
11:16PM -32.2775 120.1676 267° West  Level FlightAware Approximate
11:16PM -32.2803 120.1039 261° West 30,000  Level Aus ATC (Calculated)
11:17PM -32.2846 120.0041 91° East 30,000 361 Level Aus ATC (Calculated)
11:18PM -32.2885 119.9119 267° West  Level FlightAware Approximate
11:19PM -32.2936 119.7910 267° West  Level FlightAware Approximate
11:20PM -32.2988 119.6644 267° West  Level FlightAware Approximate
11:21PM -32.3038 119.5378 267° West  Level FlightAware Approximate
11:22PM -32.2856 120.0624 267° West 315 362 32,100  Level Aus ATC (RADAR)
11:23PM -32.2867 119.9598 269° West 309 356 32,100  Level Aus ATC (RADAR)
11:23PM -32.2901 119.9000 266° West 308 354 32,100  Level Aus ATC (RADAR)
11:24PM -32.2902 119.7977 270° West 307 353 32,100  Level Aus ATC (RADAR)
11:25PM -32.2908 119.7722 268° West 305 351 32,100  Level Aus ATC (RADAR)
11:25PM -32.2959 119.7133 264° West 298 343 32,100  Level Aus ATC (RADAR)
11:26PM -32.3365 119.6342 239° Southwest 285 328 32,100  Level Aus ATC (RADAR)
11:27PM -32.3880 119.5940 213° Southwest 306 352 32,100  Level Aus ATC (RADAR)
11:28PM -32.4715 119.5315 212° Southwest 324 373 32,100  Level Aus ATC (RADAR)
11:28PM -32.5154 119.4978 213° Southwest 322 371 32,100  Level Aus ATC (RADAR)
11:30PM -32.6174 119.4217 212° Southwest 325 374 32,100  Level Aus ATC (RADAR)
11:30PM -32.6369 119.4072 212° Southwest 328 377 32,100  Level Aus ATC (RADAR)
11:31PM -32.6805 119.3750 212° Southwest 321 369 32,100  Level Aus ATC (RADAR)
11:32PM -32.7644 119.3144 211° Southwest 327 376 32,100 -61 Level Aus ATC (RADAR)
11:32PM -32.8080 119.2819 212° Southwest 320 368 32,000 -64 Descending Aus ATC (RADAR)
11:33PM -32.8733 119.2103 223° Southwest 330 380 32,000  Level Aus ATC (RADAR)
11:34PM -32.8897 119.1289 257° West 314 361 32,000  Level Aus ATC (RADAR)
11:35PM -32.8970 119.0950 263° West 312 359 32,000  Level FlightAware
11:35PM -32.8985 119.0697 260° West 307 353 32,000  Level Aus ATC (RADAR)
11:35PM -32.9013 119.0441 263° West 308 354 32,000  Level Aus ATC (RADAR)
11:35PM -32.9050 119.0240 262° West 320 368 32,000  Level FlightAware
11:36PM -32.8944 118.9813 262° West 326 375 32,000  Level Aus ATC (RADAR)
11:36PM -32.8880 118.9650 262° West 336 387 32,000  Level FlightAware
11:36PM -32.8600 118.8940 295° West 332 382 32,000  Level FlightAware
11:37PM -32.8249 118.8155 295° West 331 381 32,000  Level Aus ATC (RADAR)
11:38PM -32.8050 118.7550 295° West 338 389 32,000  Level FlightAware
11:39PM -32.7730 118.6720 295° West 340 391 32,000  Level FlightAware
11:39PM -32.7440 118.6010 296° West 340 391 32,000  Level FlightAware
11:40PM -32.7257 118.5628 296° West 333 383 32,000  Level Aus ATC (RADAR)
11:40PM -32.7161 118.5371 294° West 334 384 32,000  Level Aus ATC (RADAR)
11:40PM -32.7160 118.5290 294° West 340 391 32,000  Level FlightAware
11:41PM -32.6911 118.4789 294° West 334 384 32,000  Level Aus ATC (RADAR)
11:41PM -32.6880 118.4590 294° West 341 392 32,000  Level FlightAware
11:41PM -32.6580 118.3840 295° West 341 392 32,000  Level FlightAware
11:42PM -32.6340 118.3250 296° West 340 391 32,000  Level FlightAware
11:43PM -32.6040 118.2490 295° West 339 390 32,000  Level FlightAware
11:43PM -32.5855 118.2085 295° West 331 381 32,000  Level Aus ATC (RADAR)
11:44PM -32.5700 118.1640 295° West 337 388 32,000  Level FlightAware
11:44PM -32.5370 118.0840 296° West 337 388 32,000  Level FlightAware
11:45PM -32.5153 118.0339 296° West 326 375 32,000  Level Aus ATC (RADAR)
11:45PM -32.5160 118.0300 296° West 336 387 32,000  Level FlightAware
11:46PM -32.4915 117.9760 296° West 326 375 32,000  Level Aus ATC (RADAR)
11:46PM -32.4810 117.9440 296° West 338 389 32,000  Level FlightAware
11:47PM -32.4560 117.8820 296° West 338 389 32,000  Level FlightAware
11:47PM -32.4240 117.8091 296° West 332 382 32,000  Level Aus ATC (RADAR)
11:47PM -32.4270 117.8110 296° West 338 389 32,000 -1,000 Level FlightAware
11:48PM -32.3970 117.7360 295° West 340 391 31,200 -1,615 Descending FlightAware
11:49PM -32.3706 117.6753 295° West 327 376 29,900 -1,855 Descending Aus ATC (RADAR)
11:49PM -32.3620 117.6460 295° West 328 377 29,500 -1,522 Descending FlightAware
11:50PM -32.3420 117.5650 286° West 317 365 28,200 -1,694 Descending FlightAware
11:50PM -32.3270 117.5040 286° West 312 359 27,100 -2,060 Descending FlightAware
11:51PM -32.3135 117.4495 286° West 299 344 25,900 -2,250 Descending Aus ATC (RADAR)
11:51PM -32.3110 117.4340 286° West 316 364 25,600 -2,400 Descending FlightAware
11:51PM -32.2992 117.3910 286° West 302 348 24,500 -1,971 Descending Aus ATC (RADAR)
11:52PM -32.2830 117.3210 286° West 318 366 23,300 -1,553 Descending FlightAware
11:53PM -32.2647 117.2487 286° West 301 346 22,300 -1,467 Descending Aus ATC (RADAR)
11:53PM -32.2640 117.2430 286° West 309 356 22,200 -1,333 Descending FlightAware
11:54PM -32.2440 117.1580 286° West 300 345 20,900 -1,723 Descending FlightAware
11:55PM -32.2225 117.0750 286° West 284 327 19,300 -1,745 Descending Aus ATC (RADAR)
11:55PM -32.2230 117.0710 286° West 302 348 19,300 -2,000 Level FlightAware
11:55PM -32.2047 117.0030 286° West 293 337 17,800 -2,100 Descending Aus ATC (RADAR)
11:55PM -32.2060 117.0030 286° West 306 352 17,900 -1,200 Climbing FlightAware
11:56PM -32.1917 116.9477 286° West 289 333 17,100 -1,333 Descending Aus ATC (RADAR)
11:56PM -32.1880 116.9320 286° West 295 339 16,900 -1,667 Descending FlightAware
11:57PM -32.1770 116.8710 282° West 300 345 15,600 -1,829 Descending FlightAware
11:58PM -32.1647 116.7971 282° West 284 327 14,400 -1,500 Descending Aus ATC (RADAR)
11:58PM -32.1610 116.7740 282° West 294 338 14,100 -1,345 Descending FlightAware
11:58PM -32.1520 116.7110 280° West 290 334 13,100 -1,658 Descending FlightAware
11:59PM -32.1459 116.6481 280° West 274 315 12,000 -1,650 Descending Aus ATC (RADAR)
11:59PM -32.1460 116.6450 280° West 284 327 12,000 -1,347 Level FlightAware
12:00AM -32.1380 116.5770 278° West 279 321 10,900 -1,521 Descending FlightAware
12:00AM -32.1325 116.5342 278° West 269 310 10,200 -1,350 Descending Aus ATC (RADAR)
12:01AM -32.1310 116.5200 278° West 278 320 10,000 -1,371 Descending FlightAware
12:01AM -32.1253 116.4821 278° West 264 304 9,400 -1,400 Descending Aus ATC (RADAR)
12:01AM -32.1250 116.4730 278° West 275 316 9,300 -1,235 Descending FlightAware
12:01AM -32.1200 116.4390 280° West 274 315 8,700 -1,467 Descending FlightAware
12:02AM -32.1160 116.4070 280° West 273 314 8,200 -1,615 Descending FlightAware
12:02AM -32.1140 116.3932 280° West 261 300 8,000 -1,200 Descending Aus ATC (RADAR)
12:02AM -32.1090 116.3520 279° West 270 311 7,400 -1,220 Descending FlightAware
12:03AM -32.1030 116.3140 281° West 267 307 6,800 -1,309 Descending FlightAware
12:03AM -32.0970 116.2680 279° West 257 296 6,200 -840 Descending FlightAware
12:04AM -32.0940 116.2430 278° West 247 284 6,100 -878 Descending FlightAware
12:04AM -32.0891 116.2104 278° West 237 273 5,600 -1,029 Descending Aus ATC (RADAR)
12:04AM -32.0880 116.1990 278° West 244 281 5,500 -955 Descending FlightAware
12:05AM -32.0820 116.1590 280° West 242 278 4,900 -1,067 Descending FlightAware
12:05AM -32.0787 116.1322 280° West 228 262 4,700 -480 Descending Aus ATC (RADAR)
12:05AM -32.0780 116.1260 280° West 228 262 4,700 -600 Level FlightAware
12:06AM -32.0740 116.1010 281° West 220 253 4,400 -1,050 Descending FlightAware
12:06AM -32.0705 116.0732 281° West 208 239 4,000 -1,029 Descending Aus ATC (RADAR)
12:06AM -32.0680 116.0640 281° West 209 241 3,800 -1,067 Descending FlightAware
12:07AM -32.0600 116.0280 285° West 198 228 3,200 -1,114 Descending FlightAware
12:07AM -32.0510 115.9900 286° West 185 213 2,500 -1,015 Descending FlightAware
12:08AM -32.0460 115.9650 283° West 174 200 2,100 -873 Descending FlightAware
12:08AM -32.0360 115.9410 296° West 153 176 1,700 -686 Descending FlightAware
12:08AM -32.0330 115.9400 344° North 149 171 1,700 -1,000 Level FlightAware
12:09AM -32.0150 115.9440 11° North 148 170 1,200 -960 Descending FlightAware
12:09AM -31.9990 115.9480 12° North 154 177 900 -720 Descending FlightAware

Login

Don't have an account? Register now (free) for customized features, flight alerts, and more!